Maytown, Pennsylvania
Current Conditions -  °F | °C
As of 11:56 AM on Saturday 25 Oct 2014 (Local Time) from KMDT Reporting Station
Scattered Clouds Scattered Clouds  
Wind Chill: 65°   Ceiling: Unl
Heat Index: 65°   Visibility: 10mi
Dew Point: 44°   Wind: 9mph
Humidity: 47%   Direction: 300°WNW
Pressure: 29.86"   Gusts: NA
Location:  40.08°N, 76.58°W
Report Text: KMDT 251556Z 30008KT 10SM FEW040 SCT250 18/07 A2986 RMK AO2 SLP111 T01830067
Loading
Personal Weather Stations






























Interactive Weather Map
Tropical Storm Tracking
New forecast layout! Learn more

10-Day Weather Forecast

Advertisements
Track Severe Weather on mobile